sensor_id;sensor_type;location;lat;lon;timestamp;temperature;humidity
15452;DHT22;7827;53.594;9.938;2023-04-06T00:00:09;3.20;99.90
15452;DHT22;7827;53.594;9.938;2023-04-06T00:02:39;3.10;99.90
15452;DHT22;7827;53.594;9.938;2023-04-06T00:05:08;3.10;99.90
15452;DHT22;7827;53.594;9.938;2023-04-06T00:07:38;3.10;99.90
15452;DHT22;7827;53.594;9.938;2023-04-06T00:10:09;3.10;99.90
15452;DHT22;7827;53.594;9.938;2023-04-06T00:12:38;3.00;99.90
15452;DHT22;7827;53.594;9.938;2023-04-06T00:15:07;3.00;99.90
15452;DHT22;7827;53.594;9.938;2023-04-06T00:17:36;3.00;99.90
15452;DHT22;7827;53.594;9.938;2023-04-06T00:20:06;3.00;99.90
15452;DHT22;7827;53.594;9.938;2023-04-06T00:22:35;3.00;99.90
15452;DHT22;7827;53.594;9.938;2023-04-06T00:25:06;3.00;99.90
15452;DHT22;7827;53.594;9.938;2023-04-06T00:27:34;3.00;99.90
15452;DHT22;7827;53.594;9.938;2023-04-06T00:30:03;3.20;99.90
15452;DHT22;7827;53.594;9.938;2023-04-06T00:32:34;3.40;99.90
15452;DHT22;7827;53.594;9.938;2023-04-06T00:35:04;3.60;99.90
15452;DHT22;7827;53.594;9.938;2023-04-06T00:37:33;3.80;99.90
15452;DHT22;7827;53.594;9.938;2023-04-06T00:40:02;3.90;99.90
15452;DHT22;7827;53.594;9.938;2023-04-06T00:42:32;3.90;99.90
15452;DHT22;7827;53.594;9.938;2023-04-06T00:45:01;3.80;99.90
15452;DHT22;7827;53.594;9.938;2023-04-06T00:47:30;3.70;99.90
15452;DHT22;7827;53.594;9.938;2023-04-06T00:49:59;3.60;99.90
15452;DHT22;7827;53.594;9.938;2023-04-06T00:52:27;3.50;99.90
15452;DHT22;7827;53.594;9.938;2023-04-06T00:54:56;3.40;99.90
15452;DHT22;7827;53.594;9.938;2023-04-06T00:57:25;3.30;99.90
15452;DHT22;7827;53.594;9.938;2023-04-06T00:59:57;3.20;99.90
15452;DHT22;7827;53.594;9.938;2023-04-06T01:02:25;3.20;99.90
15452;DHT22;7827;53.594;9.938;2023-04-06T01:04:54;3.10;99.90
15452;DHT22;7827;53.594;9.938;2023-04-06T01:07:29;3.10;99.90
15452;DHT22;7827;53.594;9.938;2023-04-06T01:10:09;3.00;99.90
15452;DHT22;7827;53.594;9.938;2023-04-06T01:12:38;3.00;99.90
15452;DHT22;7827;53.594;9.938;2023-04-06T01:15:17;3.00;99.90
15452;DHT22;7827;53.594;9.938;2023-04-06T01:17:50;2.90;99.90
15452;DHT22;7827;53.594;9.938;2023-04-06T01:20:19;2.80;99.90
15452;DHT22;7827;53.594;9.938;2023-04-06T01:22:49;2.80;99.90
15452;DHT22;7827;53.594;9.938;2023-04-06T01:25:18;2.80;99.90
15452;DHT22;7827;53.594;9.938;2023-04-06T01:28:01;2.70;99.90
15452;DHT22;7827;53.594;9.938;2023-04-06T01:31:01;2.70;99.90
15452;DHT22;7827;53.594;9.938;2023-04-06T01:33:49;2.70;99.90
15452;DHT22;7827;53.594;9.938;2023-04-06T01:36:21;2.70;99.90
15452;DHT22;7827;53.594;9.938;2023-04-06T01:38:59;2.60;99.90
15452;DHT22;7827;53.594;9.938;2023-04-06T01:41:33;2.60;99.90
15452;DHT22;7827;53.594;9.938;2023-04-06T01:44:02;2.60;99.90
15452;DHT22;7827;53.594;9.938;2023-04-06T01:46:32;2.60;99.90
15452;DHT22;7827;53.594;9.938;2023-04-06T01:49:03;2.60;99.90
15452;DHT22;7827;53.594;9.938;2023-04-06T01:51:35;2.60;99.90
15452;DHT22;7827;53.594;9.938;2023-04-06T01:54:08;2.60;99.90
15452;DHT22;7827;53.594;9.938;2023-04-06T01:56:51;2.60;99.90
15452;DHT22;7827;53.594;9.938;2023-04-06T01:59:28;2.60;99.90
15452;DHT22;7827;53.594;9.938;2023-04-06T02:01:57;2.50;99.90
15452;DHT22;7827;53.594;9.938;2023-04-06T02:04:27;2.60;99.90
15452;DHT22;7827;53.594;9.938;2023-04-06T02:07:06;2.60;99.90
15452;DHT22;7827;53.594;9.938;2023-04-06T02:09:36;2.50;99.90
15452;DHT22;7827;53.594;9.938;2023-04-06T02:12:09;2.50;99.90
15452;DHT22;7827;53.594;9.938;2023-04-06T02:14:38;2.50;99.90
15452;DHT22;7827;53.594;9.938;2023-04-06T02:17:06;2.50;99.90
15452;DHT22;7827;53.594;9.938;2023-04-06T02:19:35;2.50;99.90
15452;DHT22;7827;53.594;9.938;2023-04-06T02:22:05;2.50;99.90
15452;DHT22;7827;53.594;9.938;2023-04-06T02:24:33;2.50;99.90
15452;DHT22;7827;53.594;9.938;2023-04-06T02:27:04;2.50;99.90
15452;DHT22;7827;53.594;9.938;2023-04-06T02:29:32;2.50;99.90
15452;DHT22;7827;53.594;9.938;2023-04-06T02:32:01;2.50;99.90
15452;DHT22;7827;53.594;9.938;2023-04-06T02:34:32;2.50;99.90
15452;DHT22;7827;53.594;9.938;2023-04-06T02:37:00;2.50;99.90
15452;DHT22;7827;53.594;9.938;2023-04-06T02:39:29;2.50;99.90
15452;DHT22;7827;53.594;9.938;2023-04-06T02:41:59;2.50;99.90
15452;DHT22;7827;53.594;9.938;2023-04-06T02:44:30;2.50;99.90
15452;DHT22;7827;53.594;9.938;2023-04-06T02:46:58;2.50;99.90
15452;DHT22;7827;53.594;9.938;2023-04-06T02:49:27;2.50;99.90
15452;DHT22;7827;53.594;9.938;2023-04-06T02:51:58;2.50;99.90
15452;DHT22;7827;53.594;9.938;2023-04-06T02:54:31;2.50;99.90
15452;DHT22;7827;53.594;9.938;2023-04-06T02:57:01;2.50;99.90
15452;DHT22;7827;53.594;9.938;2023-04-06T02:59:41;2.50;99.90
15452;DHT22;7827;53.594;9.938;2023-04-06T03:02:24;2.50;99.90
15452;DHT22;7827;53.594;9.938;2023-04-06T03:05:02;2.50;99.90
15452;DHT22;7827;53.594;9.938;2023-04-06T03:07:36;2.50;99.90
15452;DHT22;7827;53.594;9.938;2023-04-06T03:10:07;2.50;99.90
15452;DHT22;7827;53.594;9.938;2023-04-06T03:12:37;2.50;99.90
15452;DHT22;7827;53.594;9.938;2023-04-06T03:15:20;2.50;99.90
15452;DHT22;7827;53.594;9.938;2023-04-06T03:17:53;2.50;99.90
15452;DHT22;7827;53.594;9.938;2023-04-06T03:20:32;2.60;99.90
15452;DHT22;7827;53.594;9.938;2023-04-06T03:23:01;2.50;99.90
15452;DHT22;7827;53.594;9.938;2023-04-06T03:25:34;2.50;99.90
15452;DHT22;7827;53.594;9.938;2023-04-06T03:28:05;2.50;99.90
15452;DHT22;7827;53.594;9.938;2023-04-06T03:30:41;2.50;99.90
15452;DHT22;7827;53.594;9.938;2023-04-06T03:33:11;2.60;99.90
15452;DHT22;7827;53.594;9.938;2023-04-06T03:35:49;2.60;99.90
15452;DHT22;7827;53.594;9.938;2023-04-06T03:38:18;2.70;99.90
15452;DHT22;7827;53.594;9.938;2023-04-06T03:40:46;2.70;99.90
15452;DHT22;7827;53.594;9.938;2023-04-06T03:43:20;2.70;99.90
15452;DHT22;7827;53.594;9.938;2023-04-06T03:45:50;2.70;99.90
15452;DHT22;7827;53.594;9.938;2023-04-06T03:48:19;2.80;99.90
15452;DHT22;7827;53.594;9.938;2023-04-06T03:50:48;2.80;99.90
15452;DHT22;7827;53.594;9.938;2023-04-06T03:53:17;2.70;99.90
15452;DHT22;7827;53.594;9.938;2023-04-06T03:55:45;2.80;99.90
15452;DHT22;7827;53.594;9.938;2023-04-06T03:58:15;2.70;99.90
15452;DHT22;7827;53.594;9.938;2023-04-06T04:00:45;2.80;99.90
15452;DHT22;7827;53.594;9.938;2023-04-06T04:03:14;2.70;99.90
15452;DHT22;7827;53.594;9.938;2023-04-06T04:05:43;2.70;99.90
15452;DHT22;7827;53.594;9.938;2023-04-06T04:08:13;2.70;99.90
15452;DHT22;7827;53.594;9.938;2023-04-06T04:10:41;2.70;99.90
15452;DHT22;7827;53.594;9.938;2023-04-06T04:13:10;2.60;99.90
15452;DHT22;7827;53.594;9.938;2023-04-06T04:15:40;2.60;99.90
15452;DHT22;7827;53.594;9.938;2023-04-06T04:18:09;2.60;99.90
15452;DHT22;7827;53.594;9.938;2023-04-06T04:20:41;2.60;99.90
15452;DHT22;7827;53.594;9.938;2023-04-06T04:23:12;2.60;99.90
15452;DHT22;7827;53.594;9.938;2023-04-06T04:25:41;2.50;99.90
15452;DHT22;7827;53.594;9.938;2023-04-06T04:28:11;2.50;99.90
15452;DHT22;7827;53.594;9.938;2023-04-06T04:30:41;2.50;99.90
15452;DHT22;7827;53.594;9.938;2023-04-06T04:33:11;2.50;99.90
15452;DHT22;7827;53.594;9.938;2023-04-06T04:35:42;2.50;99.90
15452;DHT22;7827;53.594;9.938;2023-04-06T04:38:15;2.50;99.90
15452;DHT22;7827;53.594;9.938;2023-04-06T04:40:49;2.50;99.90
15452;DHT22;7827;53.594;9.938;2023-04-06T04:43:18;2.50;99.90
15452;DHT22;7827;53.594;9.938;2023-04-06T04:45:49;2.60;99.90
15452;DHT22;7827;53.594;9.938;2023-04-06T04:48:27;2.50;99.90
15452;DHT22;7827;53.594;9.938;2023-04-06T04:51:01;2.50;99.90
15452;DHT22;7827;53.594;9.938;2023-04-06T04:53:42;2.50;99.90
15452;DHT22;7827;53.594;9.938;2023-04-06T04:56:19;2.50;99.90
15452;DHT22;7827;53.594;9.938;2023-04-06T04:58:52;2.50;99.90
15452;DHT22;7827;53.594;9.938;2023-04-06T05:01:21;2.50;99.90
15452;DHT22;7827;53.594;9.938;2023-04-06T05:03:50;2.40;99.90
15452;DHT22;7827;53.594;9.938;2023-04-06T05:06:21;2.40;99.90
15452;DHT22;7827;53.594;9.938;2023-04-06T05:08:50;2.40;99.90
15452;DHT22;7827;53.594;9.938;2023-04-06T05:11:19;2.50;99.90
15452;DHT22;7827;53.594;9.938;2023-04-06T05:13:55;2.50;99.90
15452;DHT22;7827;53.594;9.938;2023-04-06T05:16:24;2.50;99.90
15452;DHT22;7827;53.594;9.938;2023-04-06T05:18:53;2.50;99.90
15452;DHT22;7827;53.594;9.938;2023-04-06T05:21:28;2.50;99.90
15452;DHT22;7827;53.594;9.938;2023-04-06T05:24:03;2.50;99.90
15452;DHT22;7827;53.594;9.938;2023-04-06T05:26:33;2.60;99.90
15452;DHT22;7827;53.594;9.938;2023-04-06T05:29:07;2.60;99.90
15452;DHT22;7827;53.594;9.938;2023-04-06T05:31:38;2.60;99.90
15452;DHT22;7827;53.594;9.938;2023-04-06T05:34:08;2.70;99.90
15452;DHT22;7827;53.594;9.938;2023-04-06T05:36:39;2.70;99.90
15452;DHT22;7827;53.594;9.938;2023-04-06T05:39:16;2.60;99.90
15452;DHT22;7827;53.594;9.938;2023-04-06T05:41:50;2.60;99.90
15452;DHT22;7827;53.594;9.938;2023-04-06T05:44:30;2.60;99.90
15452;DHT22;7827;53.594;9.938;2023-04-06T05:47:05;2.60;99.90
15452;DHT22;7827;53.594;9.938;2023-04-06T05:49:35;2.60;99.90
15452;DHT22;7827;53.594;9.938;2023-04-06T05:52:09;2.70;99.90
15452;DHT22;7827;53.594;9.938;2023-04-06T05:54:41;2.70;99.90
15452;DHT22;7827;53.594;9.938;2023-04-06T05:57:10;2.80;99.90
15452;DHT22;7827;53.594;9.938;2023-04-06T05:59:39;3.00;99.90
15452;DHT22;7827;53.594;9.938;2023-04-06T06:02:09;3.10;99.90
15452;DHT22;7827;53.594;9.938;2023-04-06T06:04:41;3.10;99.90
15452;DHT22;7827;53.594;9.938;2023-04-06T06:07:11;3.10;99.90
15452;DHT22;7827;53.594;9.938;2023-04-06T06:09:44;3.20;99.90
15452;DHT22;7827;53.594;9.938;2023-04-06T06:12:23;3.30;99.90
15452;DHT22;7827;53.594;9.938;2023-04-06T06:14:54;3.50;99.90
15452;DHT22;7827;53.594;9.938;2023-04-06T06:17:25;3.60;99.90
15452;DHT22;7827;53.594;9.938;2023-04-06T06:19:55;3.70;99.90
15452;DHT22;7827;53.594;9.938;2023-04-06T06:22:25;3.70;99.90
15452;DHT22;7827;53.594;9.938;2023-04-06T06:24:53;3.70;99.90
15452;DHT22;7827;53.594;9.938;2023-04-06T06:27:23;3.80;99.90
15452;DHT22;7827;53.594;9.938;2023-04-06T06:29:52;3.90;99.90
15452;DHT22;7827;53.594;9.938;2023-04-06T06:32:22;4.00;99.90
15452;DHT22;7827;53.594;9.938;2023-04-06T06:34:52;4.10;99.90
15452;DHT22;7827;53.594;9.938;2023-04-06T06:37:21;4.30;99.90
15452;DHT22;7827;53.594;9.938;2023-04-06T06:39:51;4.40;99.90
15452;DHT22;7827;53.594;9.938;2023-04-06T06:42:21;4.60;99.90
15452;DHT22;7827;53.594;9.938;2023-04-06T06:45:04;4.80;99.90
15452;DHT22;7827;53.594;9.938;2023-04-06T06:47:34;5.10;99.90
15452;DHT22;7827;53.594;9.938;2023-04-06T06:50:03;5.30;99.90
15452;DHT22;7827;53.594;9.938;2023-04-06T06:52:32;5.60;99.90
15452;DHT22;7827;53.594;9.938;2023-04-06T06:55:03;5.70;99.90
15452;DHT22;7827;53.594;9.938;2023-04-06T06:57:32;5.80;99.90
15452;DHT22;7827;53.594;9.938;2023-04-06T07:00:01;6.00;99.90
15452;DHT22;7827;53.594;9.938;2023-04-06T07:02:34;6.10;99.90
15452;DHT22;7827;53.594;9.938;2023-04-06T07:05:04;6.20;99.90
15452;DHT22;7827;53.594;9.938;2023-04-06T07:07:53;6.30;99.90
15452;DHT22;7827;53.594;9.938;2023-04-06T07:10:23;6.50;99.90
15452;DHT22;7827;53.594;9.938;2023-04-06T07:12:52;6.60;99.90
15452;DHT22;7827;53.594;9.938;2023-04-06T07:15:21;6.90;99.90
15452;DHT22;7827;53.594;9.938;2023-04-06T07:17:51;6.90;99.90
15452;DHT22;7827;53.594;9.938;2023-04-06T07:20:22;6.90;99.90
15452;DHT22;7827;53.594;9.938;2023-04-06T07:22:50;6.90;99.90
15452;DHT22;7827;53.594;9.938;2023-04-06T07:25:19;6.90;99.90
15452;DHT22;7827;53.594;9.938;2023-04-06T07:27:52;6.90;99.90
15452;DHT22;7827;53.594;9.938;2023-04-06T07:30:22;7.00;99.90
15452;DHT22;7827;53.594;9.938;2023-04-06T07:32:53;7.00;99.90
15452;DHT22;7827;53.594;9.938;2023-04-06T07:35:23;7.00;99.90
15452;DHT22;7827;53.594;9.938;2023-04-06T07:37:53;7.10;99.90
15452;DHT22;7827;53.594;9.938;2023-04-06T07:40:22;7.40;99.90
15452;DHT22;7827;53.594;9.938;2023-04-06T07:42:51;7.60;99.90
15452;DHT22;7827;53.594;9.938;2023-04-06T07:45:23;7.60;99.90
15452;DHT22;7827;53.594;9.938;2023-04-06T07:47:53;7.70;99.90
15452;DHT22;7827;53.594;9.938;2023-04-06T07:50:22;7.80;99.90
15452;DHT22;7827;53.594;9.938;2023-04-06T07:52:52;7.90;99.90
15452;DHT22;7827;53.594;9.938;2023-04-06T07:55:22;7.90;99.90
15452;DHT22;7827;53.594;9.938;2023-04-06T07:57:50;7.90;99.90
15452;DHT22;7827;53.594;9.938;2023-04-06T08:00:21;8.10;99.90
15452;DHT22;7827;53.594;9.938;2023-04-06T08:02:50;8.30;99.90
15452;DHT22;7827;53.594;9.938;2023-04-06T08:05:18;8.20;99.90
15452;DHT22;7827;53.594;9.938;2023-04-06T08:07:47;8.10;99.90
15452;DHT22;7827;53.594;9.938;2023-04-06T08:10:16;7.90;99.90
15452;DHT22;7827;53.594;9.938;2023-04-06T08:12:44;7.80;99.90
15452;DHT22;7827;53.594;9.938;2023-04-06T08:15:13;7.90;99.90
15452;DHT22;7827;53.594;9.938;2023-04-06T08:17:43;7.90;99.90
15452;DHT22;7827;53.594;9.938;2023-04-06T08:20:11;7.90;99.90
15452;DHT22;7827;53.594;9.938;2023-04-06T08:22:40;7.90;99.90
15452;DHT22;7827;53.594;9.938;2023-04-06T08:25:08;7.90;99.90
15452;DHT22;7827;53.594;9.938;2023-04-06T08:27:37;7.90;99.90
15452;DHT22;7827;53.594;9.938;2023-04-06T08:30:08;8.00;99.90
15452;DHT22;7827;53.594;9.938;2023-04-06T08:32:37;8.10;99.90
15452;DHT22;7827;53.594;9.938;2023-04-06T08:35:07;8.20;99.90
15452;DHT22;7827;53.594;9.938;2023-04-06T08:37:36;8.30;99.90
15452;DHT22;7827;53.594;9.938;2023-04-06T08:40:05;8.40;99.90
15452;DHT22;7827;53.594;9.938;2023-04-06T08:42:40;8.50;99.90
15452;DHT22;7827;53.594;9.938;2023-04-06T08:45:12;8.50;99.90
15452;DHT22;7827;53.594;9.938;2023-04-06T08:47:45;8.50;99.90
15452;DHT22;7827;53.594;9.938;2023-04-06T08:50:16;8.60;99.90
15452;DHT22;7827;53.594;9.938;2023-04-06T08:52:47;8.60;99.90
15452;DHT22;7827;53.594;9.938;2023-04-06T08:55:16;8.60;99.90
15452;DHT22;7827;53.594;9.938;2023-04-06T08:57:45;8.80;99.90
15452;DHT22;7827;53.594;9.938;2023-04-06T09:00:15;8.90;99.90
15452;DHT22;7827;53.594;9.938;2023-04-06T09:02:46;8.90;99.90
15452;DHT22;7827;53.594;9.938;2023-04-06T09:05:18;8.90;99.90
15452;DHT22;7827;53.594;9.938;2023-04-06T09:07:47;8.90;99.90
15452;DHT22;7827;53.594;9.938;2023-04-06T09:10:17;8.90;99.90
15452;DHT22;7827;53.594;9.938;2023-04-06T09:12:45;8.90;99.90
15452;DHT22;7827;53.594;9.938;2023-04-06T09:15:22;9.00;99.90
15452;DHT22;7827;53.594;9.938;2023-04-06T09:17:51;9.00;99.90
15452;DHT22;7827;53.594;9.938;2023-04-06T09:20:24;9.10;99.90
15452;DHT22;7827;53.594;9.938;2023-04-06T09:22:55;9.20;99.90
15452;DHT22;7827;53.594;9.938;2023-04-06T09:25:24;9.20;99.90
15452;DHT22;7827;53.594;9.938;2023-04-06T09:28:02;9.30;99.90
15452;DHT22;7827;53.594;9.938;2023-04-06T09:30:33;9.30;99.90
15452;DHT22;7827;53.594;9.938;2023-04-06T09:33:02;9.30;99.90
15452;DHT22;7827;53.594;9.938;2023-04-06T09:35:33;9.30;99.90
15452;DHT22;7827;53.594;9.938;2023-04-06T09:38:10;9.30;99.90
15452;DHT22;7827;53.594;9.938;2023-04-06T09:40:48;9.40;99.90
15452;DHT22;7827;53.594;9.938;2023-04-06T09:43:27;9.50;99.90
15452;DHT22;7827;53.594;9.938;2023-04-06T09:45:56;9.60;99.90
15452;DHT22;7827;53.594;9.938;2023-04-06T09:48:27;9.70;99.90
15452;DHT22;7827;53.594;9.938;2023-04-06T09:51:03;9.80;99.90
15452;DHT22;7827;53.594;9.938;2023-04-06T09:53:36;9.90;99.90
15452;DHT22;7827;53.594;9.938;2023-04-06T09:56:12;10.00;99.90
15452;DHT22;7827;53.594;9.938;2023-04-06T09:58:49;10.00;99.90
15452;DHT22;7827;53.594;9.938;2023-04-06T10:01:21;9.90;99.90
15452;DHT22;7827;53.594;9.938;2023-04-06T10:04:01;9.90;99.90
15452;DHT22;7827;53.594;9.938;2023-04-06T10:06:41;10.10;99.90
15452;DHT22;7827;53.594;9.938;2023-04-06T10:09:10;10.30;99.90
15452;DHT22;7827;53.594;9.938;2023-04-06T10:11:41;10.30;99.90
15452;DHT22;7827;53.594;9.938;2023-04-06T10:14:10;10.20;99.90
15452;DHT22;7827;53.594;9.938;2023-04-06T10:16:39;10.30;99.90
15452;DHT22;7827;53.594;9.938;2023-04-06T10:19:12;10.40;99.90
15452;DHT22;7827;53.594;9.938;2023-04-06T10:21:48;10.40;99.90
15452;DHT22;7827;53.594;9.938;2023-04-06T10:24:21;10.50;99.90
15452;DHT22;7827;53.594;9.938;2023-04-06T10:27:00;10.60;99.90
15452;DHT22;7827;53.594;9.938;2023-04-06T10:29:42;10.70;99.90
15452;DHT22;7827;53.594;9.938;2023-04-06T10:32:12;10.80;99.90
15452;DHT22;7827;53.594;9.938;2023-04-06T10:34:40;10.90;99.70
15452;DHT22;7827;53.594;9.938;2023-04-06T10:37:15;10.90;99.90
15452;DHT22;7827;53.594;9.938;2023-04-06T10:39:46;10.90;99.90
15452;DHT22;7827;53.594;9.938;2023-04-06T10:42:16;10.90;98.70
15452;DHT22;7827;53.594;9.938;2023-04-06T10:44:44;10.90;99.90
15452;DHT22;7827;53.594;9.938;2023-04-06T10:47:17;11.00;99.90
15452;DHT22;7827;53.594;9.938;2023-04-06T10:49:46;11.10;99.70
15452;DHT22;7827;53.594;9.938;2023-04-06T10:52:16;11.10;99.90
15452;DHT22;7827;53.594;9.938;2023-04-06T10:54:44;11.20;99.30
15452;DHT22;7827;53.594;9.938;2023-04-06T10:57:16;11.20;99.90
15452;DHT22;7827;53.594;9.938;2023-04-06T10:59:56;11.30;99.90
15452;DHT22;7827;53.594;9.938;2023-04-06T11:02:24;11.30;98.90
15452;DHT22;7827;53.594;9.938;2023-04-06T11:04:56;11.50;99.90
15452;DHT22;7827;53.594;9.938;2023-04-06T11:07:27;11.50;99.10
15452;DHT22;7827;53.594;9.938;2023-04-06T11:09:57;11.50;98.70
15452;DHT22;7827;53.594;9.938;2023-04-06T11:12:43;11.70;96.90
15452;DHT22;7827;53.594;9.938;2023-04-06T11:15:11;11.70;99.80
15452;DHT22;7827;53.594;9.938;2023-04-06T11:17:40;11.80;98.10
15452;DHT22;7827;53.594;9.938;2023-04-06T11:20:10;11.90;97.70
15452;DHT22;7827;53.594;9.938;2023-04-06T11:22:49;11.90;96.90
15452;DHT22;7827;53.594;9.938;2023-04-06T11:25:18;12.00;98.40
15452;DHT22;7827;53.594;9.938;2023-04-06T11:27:47;11.90;98.20
15452;DHT22;7827;53.594;9.938;2023-04-06T11:30:17;11.80;96.40
15452;DHT22;7827;53.594;9.938;2023-04-06T11:32:46;11.80;99.30
15452;DHT22;7827;53.594;9.938;2023-04-06T11:35:20;11.80;98.00
15452;DHT22;7827;53.594;9.938;2023-04-06T11:37:50;11.90;98.00
15452;DHT22;7827;53.594;9.938;2023-04-06T11:40:21;11.80;97.50
15452;DHT22;7827;53.594;9.938;2023-04-06T11:42:55;11.90;97.70
15452;DHT22;7827;53.594;9.938;2023-04-06T11:45:26;11.90;97.50
15452;DHT22;7827;53.594;9.938;2023-04-06T11:47:56;12.00;97.60
15452;DHT22;7827;53.594;9.938;2023-04-06T11:50:32;12.00;97.10
15452;DHT22;7827;53.594;9.938;2023-04-06T11:53:03;12.00;96.00
15452;DHT22;7827;53.594;9.938;2023-04-06T11:55:37;12.00;95.00
15452;DHT22;7827;53.594;9.938;2023-04-06T11:58:07;12.10;97.80
15452;DHT22;7827;53.594;9.938;2023-04-06T12:00:35;12.20;96.20
15452;DHT22;7827;53.594;9.938;2023-04-06T12:03:04;12.20;97.30
15452;DHT22;7827;53.594;9.938;2023-04-06T12:05:33;12.20;97.10
15452;DHT22;7827;53.594;9.938;2023-04-06T12:08:03;12.20;94.00
15452;DHT22;7827;53.594;9.938;2023-04-06T12:10:32;12.30;96.60
15452;DHT22;7827;53.594;9.938;2023-04-06T12:13:00;12.40;94.60
15452;DHT22;7827;53.594;9.938;2023-04-06T12:15:29;12.40;95.60
15452;DHT22;7827;53.594;9.938;2023-04-06T12:17:57;12.50;94.40
15452;DHT22;7827;53.594;9.938;2023-04-06T12:20:26;12.50;94.80
15452;DHT22;7827;53.594;9.938;2023-04-06T12:22:55;12.60;93.90
15452;DHT22;7827;53.594;9.938;2023-04-06T12:25:25;12.60;93.30
15452;DHT22;7827;53.594;9.938;2023-04-06T12:27:54;12.70;92.80
15452;DHT22;7827;53.594;9.938;2023-04-06T12:30:22;12.70;94.80
15452;DHT22;7827;53.594;9.938;2023-04-06T12:32:51;12.70;96.70
15452;DHT22;7827;53.594;9.938;2023-04-06T12:35:19;12.80;98.40
15452;DHT22;7827;53.594;9.938;2023-04-06T12:37:48;12.80;93.80
15452;DHT22;7827;53.594;9.938;2023-04-06T12:40:17;12.70;92.00
15452;DHT22;7827;53.594;9.938;2023-04-06T12:42:47;12.80;93.40
15452;DHT22;7827;53.594;9.938;2023-04-06T12:45:15;12.90;92.40
15452;DHT22;7827;53.594;9.938;2023-04-06T12:47:46;12.80;93.10
15452;DHT22;7827;53.594;9.938;2023-04-06T12:50:15;12.80;78.10
15452;DHT22;7827;53.594;9.938;2023-04-06T12:52:44;12.70;91.60
15452;DHT22;7827;53.594;9.938;2023-04-06T12:55:13;12.70;92.30
15452;DHT22;7827;53.594;9.938;2023-04-06T12:57:42;12.70;92.90
15452;DHT22;7827;53.594;9.938;2023-04-06T13:00:13;12.70;93.90
15452;DHT22;7827;53.594;9.938;2023-04-06T13:02:43;12.70;92.60
15452;DHT22;7827;53.594;9.938;2023-04-06T13:05:14;12.80;94.40
15452;DHT22;7827;53.594;9.938;2023-04-06T13:07:45;12.90;91.30
15452;DHT22;7827;53.594;9.938;2023-04-06T13:10:14;12.90;94.10
15452;DHT22;7827;53.594;9.938;2023-04-06T13:12:43;12.90;91.60
15452;DHT22;7827;53.594;9.938;2023-04-06T13:15:13;12.90;93.60
15452;DHT22;7827;53.594;9.938;2023-04-06T13:17:42;12.80;93.70
15452;DHT22;7827;53.594;9.938;2023-04-06T13:20:10;12.90;93.00
15452;DHT22;7827;53.594;9.938;2023-04-06T13:22:40;13.00;94.70
15452;DHT22;7827;53.594;9.938;2023-04-06T13:25:08;13.10;91.90
15452;DHT22;7827;53.594;9.938;2023-04-06T13:27:37;13.20;91.30
15452;DHT22;7827;53.594;9.938;2023-04-06T13:30:07;13.10;91.10
15452;DHT22;7827;53.594;9.938;2023-04-06T13:32:38;13.20;88.80
15452;DHT22;7827;53.594;9.938;2023-04-06T13:35:07;13.10;84.90
15452;DHT22;7827;53.594;9.938;2023-04-06T13:37:38;13.10;90.50
15452;DHT22;7827;53.594;9.938;2023-04-06T13:40:08;13.20;86.40
15452;DHT22;7827;53.594;9.938;2023-04-06T13:42:37;13.10;85.60
15452;DHT22;7827;53.594;9.938;2023-04-06T13:45:08;13.00;88.80
15452;DHT22;7827;53.594;9.938;2023-04-06T13:47:39;13.10;89.10
15452;DHT22;7827;53.594;9.938;2023-04-06T13:50:08;13.10;85.60
15452;DHT22;7827;53.594;9.938;2023-04-06T13:52:37;13.10;90.40
15452;DHT22;7827;53.594;9.938;2023-04-06T13:55:06;12.90;85.00
15452;DHT22;7827;53.594;9.938;2023-04-06T13:57:35;13.00;90.40
15452;DHT22;7827;53.594;9.938;2023-04-06T14:00:05;13.00;93.30
15452;DHT22;7827;53.594;9.938;2023-04-06T14:02:36;13.10;95.20
15452;DHT22;7827;53.594;9.938;2023-04-06T14:05:06;13.10;94.10
15452;DHT22;7827;53.594;9.938;2023-04-06T14:07:35;13.10;90.00
15452;DHT22;7827;53.594;9.938;2023-04-06T14:10:05;13.10;91.60
15452;DHT22;7827;53.594;9.938;2023-04-06T14:12:40;13.10;57.40
15452;DHT22;7827;53.594;9.938;2023-04-06T14:15:10;13.10;68.30
15452;DHT22;7827;53.594;9.938;2023-04-06T14:17:39;13.20;86.80
15452;DHT22;7827;53.594;9.938;2023-04-06T14:20:11;13.30;91.00
15452;DHT22;7827;53.594;9.938;2023-04-06T14:22:41;13.20;92.60
15452;DHT22;7827;53.594;9.938;2023-04-06T14:25:10;13.30;91.50
15452;DHT22;7827;53.594;9.938;2023-04-06T14:27:39;13.30;86.90
15452;DHT22;7827;53.594;9.938;2023-04-06T14:30:08;13.30;75.20
15452;DHT22;7827;53.594;9.938;2023-04-06T14:32:37;13.30;79.50
15452;DHT22;7827;53.594;9.938;2023-04-06T14:35:07;13.30;90.20
15452;DHT22;7827;53.594;9.938;2023-04-06T14:37:37;13.30;86.50
15452;DHT22;7827;53.594;9.938;2023-04-06T14:40:07;13.20;90.70
15452;DHT22;7827;53.594;9.938;2023-04-06T14:42:36;13.10;90.70
15452;DHT22;7827;53.594;9.938;2023-04-06T14:45:05;13.20;81.60
15452;DHT22;7827;53.594;9.938;2023-04-06T14:47:34;13.20;90.40
15452;DHT22;7827;53.594;9.938;2023-04-06T14:50:03;13.20;84.40
15452;DHT22;7827;53.594;9.938;2023-04-06T14:52:33;13.20;84.80
15452;DHT22;7827;53.594;9.938;2023-04-06T14:55:01;13.20;81.80
15452;DHT22;7827;53.594;9.938;2023-04-06T14:57:30;13.20;81.10
15452;DHT22;7827;53.594;9.938;2023-04-06T14:59:59;13.20;90.10
15452;DHT22;7827;53.594;9.938;2023-04-06T15:02:27;13.10;93.90
15452;DHT22;7827;53.594;9.938;2023-04-06T15:04:56;13.10;94.00
15452;DHT22;7827;53.594;9.938;2023-04-06T15:07:25;13.10;94.90
15452;DHT22;7827;53.594;9.938;2023-04-06T15:09:55;13.20;91.10
15452;DHT22;7827;53.594;9.938;2023-04-06T15:12:23;13.20;88.30
15452;DHT22;7827;53.594;9.938;2023-04-06T15:14:51;13.20;89.50
15452;DHT22;7827;53.594;9.938;2023-04-06T15:17:20;13.20;92.00
15452;DHT22;7827;53.594;9.938;2023-04-06T15:19:48;13.20;92.50
15452;DHT22;7827;53.594;9.938;2023-04-06T15:22:17;13.20;93.40
15452;DHT22;7827;53.594;9.938;2023-04-06T15:24:45;13.20;93.60
15452;DHT22;7827;53.594;9.938;2023-04-06T15:27:14;13.30;91.30
15452;DHT22;7827;53.594;9.938;2023-04-06T15:29:43;13.30;85.80
15452;DHT22;7827;53.594;9.938;2023-04-06T15:32:11;13.30;91.30
15452;DHT22;7827;53.594;9.938;2023-04-06T15:34:40;13.20;91.90
15452;DHT22;7827;53.594;9.938;2023-04-06T15:37:08;13.30;91.50
15452;DHT22;7827;53.594;9.938;2023-04-06T15:39:37;13.30;89.90
15452;DHT22;7827;53.594;9.938;2023-04-06T15:42:05;13.30;90.90
15452;DHT22;7827;53.594;9.938;2023-04-06T15:44:34;13.40;90.40
15452;DHT22;7827;53.594;9.938;2023-04-06T15:47:03;13.40;88.50
15452;DHT22;7827;53.594;9.938;2023-04-06T15:49:31;13.40;91.50
15452;DHT22;7827;53.594;9.938;2023-04-06T15:52:00;13.40;90.20
15452;DHT22;7827;53.594;9.938;2023-04-06T15:54:29;13.50;90.90
15452;DHT22;7827;53.594;9.938;2023-04-06T15:56:57;13.50;94.10
15452;DHT22;7827;53.594;9.938;2023-04-06T15:59:25;13.40;91.80
15452;DHT22;7827;53.594;9.938;2023-04-06T16:01:55;13.40;80.70
15452;DHT22;7827;53.594;9.938;2023-04-06T16:04:23;13.50;85.40
15452;DHT22;7827;53.594;9.938;2023-04-06T16:06:52;13.50;80.80
15452;DHT22;7827;53.594;9.938;2023-04-06T16:09:20;13.60;80.50
15452;DHT22;7827;53.594;9.938;2023-04-06T16:11:48;13.60;84.60
15452;DHT22;7827;53.594;9.938;2023-04-06T16:14:16;13.60;87.10
15452;DHT22;7827;53.594;9.938;2023-04-06T16:16:45;13.50;87.90